메인 페이지
METAR-TAF:

METAR-TAF

공항 :

Vance Air Force Base, 오클라호마, 미국

위도: 36-20N, 경도: 097-55W, 고도: 398m

현재 날씨관측

예보는 19분 전, 22:56시(UTC)에 발표되었습니다.
7kt
온도 14°C
습도 100%
기압 1016 hPa
시정: 16.1km
고도 900ft 상공 흐림

METAR: KEND 232256Z AUTO 35007KT 10SM OVC009 14/14 A3001 RMK AO2 SLP162 T01360136 $

시각: 18:15 (23:15 UTC)

예보

예보는 57분 전, 22:18시(UTC)에 발표되었습니다.
예보 대상 시간: 23일 22시부터 24일 24시까지 (UTC)
9kt
시정 10km 이상
고도 1000ft 상공 흐림
전환 중
24일 05시부터 24일 06시까지 (UTC)
6kt
시정: 8000m
고도 600ft 상공 구름 많음
고도 2000ft 상공 흐림
박무
전환 중
24일 14시부터 24일 15시까지 (UTC)
북북동6kt
시정 10km 이상
고도 1200ft 상공 구름 많음
전환 중
24일 17시부터 24일 18시까지 (UTC)
북북동6kt
시정 10km 이상
고도 2500ft 상공 구름 많음
전환 중
24일 21시부터 24일 22시까지 (UTC)
여러 방향의 바람 6kt
시정: 2410m
고도 4500ft 상공 구름 조금

TAF: KEND 232218Z 2322/2424 36009KT 9999 OVC010 QNH2997INS BECMG 2405/2406 35006KT 8000 BR BKN006 OVC020 QNH2993INS BECMG 2414/2415 02006KT 9999 NSW BKN012 QNH2994INS BECMG 2417/2418 03006KT 9999 BKN025 QNH2986INS BECMG 2421/2422 VRB06KT 9999 FEW045 QNH2981INS TX15/2322Z TN08/2412Z LAST NO AMDS AFT 2401 NEXT 2410

4,000개 이상의 공항 관측 자료 및 예보 (METAR 및 TAF 보고).

지도상에서 검색 가능한 기상관측소가 노란 점과 빨간 점으로 표시되어 있습니다.

기상관측소 명을 보려면 표시 위로 마우스를 이동하세요.

날씨 관측과 예보를 보려면 클릭하세요.

지도 변경 : 확대하려면 엑스 표시가 있는 녹색 버튼, 축소하려면 빼기 표시가 있는 녹색 버튼, 다음 페이지의 지도를 보려면 녹색 화살표를 클릭하세요.


METAR-TAF: